sensor_id;sensor_type;location;lat;lon;timestamp;temperature;humidity
1996;DHT22;38556;47.068;15.408;2022-12-24T00:01:57;7.00;99.90
1996;DHT22;38556;47.068;15.408;2022-12-24T00:04:25;7.00;99.90
1996;DHT22;38556;47.068;15.408;2022-12-24T00:06:53;6.90;99.90
1996;DHT22;38556;47.068;15.408;2022-12-24T00:09:20;6.90;99.90
1996;DHT22;38556;47.068;15.408;2022-12-24T00:11:48;6.90;99.90
1996;DHT22;38556;47.068;15.408;2022-12-24T00:14:15;6.90;99.90
1996;DHT22;38556;47.068;15.408;2022-12-24T00:16:42;6.90;99.90
1996;DHT22;38556;47.068;15.408;2022-12-24T00:19:10;6.90;99.90
1996;DHT22;38556;47.068;15.408;2022-12-24T00:21:38;6.90;99.90
1996;DHT22;38556;47.068;15.408;2022-12-24T00:24:07;6.90;99.90
1996;DHT22;38556;47.068;15.408;2022-12-24T00:26:34;6.90;99.90
1996;DHT22;38556;47.068;15.408;2022-12-24T00:29:01;6.90;99.90
1996;DHT22;38556;47.068;15.408;2022-12-24T00:31:29;7.00;99.90
1996;DHT22;38556;47.068;15.408;2022-12-24T00:33:56;7.00;99.90
1996;DHT22;38556;47.068;15.408;2022-12-24T00:36:23;6.80;99.90
1996;DHT22;38556;47.068;15.408;2022-12-24T00:38:50;6.50;99.90
1996;DHT22;38556;47.068;15.408;2022-12-24T00:41:19;6.60;99.90
1996;DHT22;38556;47.068;15.408;2022-12-24T00:43:55;6.60;99.90
1996;DHT22;38556;47.068;15.408;2022-12-24T00:46:24;6.70;99.90
1996;DHT22;38556;47.068;15.408;2022-12-24T00:48:51;6.70;99.90
1996;DHT22;38556;47.068;15.408;2022-12-24T00:51:19;6.70;99.90
1996;DHT22;38556;47.068;15.408;2022-12-24T00:53:48;6.70;99.90
1996;DHT22;38556;47.068;15.408;2022-12-24T00:56:15;6.70;99.90
1996;DHT22;38556;47.068;15.408;2022-12-24T00:58:44;6.70;99.90
1996;DHT22;38556;47.068;15.408;2022-12-24T01:01:11;6.70;99.90
1996;DHT22;38556;47.068;15.408;2022-12-24T01:03:39;6.70;99.90
1996;DHT22;38556;47.068;15.408;2022-12-24T01:06:09;6.70;99.90
1996;DHT22;38556;47.068;15.408;2022-12-24T01:08:35;6.70;99.90
1996;DHT22;38556;47.068;15.408;2022-12-24T01:11:05;6.70;99.90
1996;DHT22;38556;47.068;15.408;2022-12-24T01:13:33;6.60;99.90
1996;DHT22;38556;47.068;15.408;2022-12-24T01:16:02;6.50;99.90
1996;DHT22;38556;47.068;15.408;2022-12-24T01:18:29;6.60;99.90
1996;DHT22;38556;47.068;15.408;2022-12-24T01:20:58;6.60;99.90
1996;DHT22;38556;47.068;15.408;2022-12-24T01:23:27;6.60;99.90
1996;DHT22;38556;47.068;15.408;2022-12-24T01:25:54;6.50;99.90
1996;DHT22;38556;47.068;15.408;2022-12-24T01:28:25;6.50;99.90
1996;DHT22;38556;47.068;15.408;2022-12-24T01:30:52;6.50;99.90
1996;DHT22;38556;47.068;15.408;2022-12-24T01:33:22;6.50;99.90
1996;DHT22;38556;47.068;15.408;2022-12-24T01:35:49;6.50;99.90
1996;DHT22;38556;47.068;15.408;2022-12-24T01:38:16;6.60;99.90
1996;DHT22;38556;47.068;15.408;2022-12-24T01:40:43;6.60;99.90
1996;DHT22;38556;47.068;15.408;2022-12-24T01:43:31;6.50;99.90
1996;DHT22;38556;47.068;15.408;2022-12-24T01:45:59;6.50;99.90
1996;DHT22;38556;47.068;15.408;2022-12-24T01:48:34;6.50;99.90
1996;DHT22;38556;47.068;15.408;2022-12-24T01:51:07;6.50;99.90
1996;DHT22;38556;47.068;15.408;2022-12-24T01:53:38;6.50;99.90
1996;DHT22;38556;47.068;15.408;2022-12-24T01:56:09;6.40;99.90
1996;DHT22;38556;47.068;15.408;2022-12-24T01:58:39;6.30;99.90
1996;DHT22;38556;47.068;15.408;2022-12-24T02:01:09;6.30;99.90
1996;DHT22;38556;47.068;15.408;2022-12-24T02:03:37;6.10;99.90
1996;DHT22;38556;47.068;15.408;2022-12-24T02:06:05;6.20;99.90
1996;DHT22;38556;47.068;15.408;2022-12-24T02:08:34;6.20;99.90
1996;DHT22;38556;47.068;15.408;2022-12-24T02:11:14;6.20;99.90
1996;DHT22;38556;47.068;15.408;2022-12-24T02:13:43;6.20;99.90
1996;DHT22;38556;47.068;15.408;2022-12-24T02:16:20;6.20;99.90
1996;DHT22;38556;47.068;15.408;2022-12-24T02:18:59;6.00;99.90
1996;DHT22;38556;47.068;15.408;2022-12-24T02:21:50;6.00;99.90
1996;DHT22;38556;47.068;15.408;2022-12-24T02:25:01;5.90;99.90
1996;DHT22;38556;47.068;15.408;2022-12-24T02:27:44;6.00;99.90
1996;DHT22;38556;47.068;15.408;2022-12-24T02:30:20;6.00;99.90
1996;DHT22;38556;47.068;15.408;2022-12-24T02:32:56;6.00;99.90
1996;DHT22;38556;47.068;15.408;2022-12-24T02:35:36;6.10;99.90
1996;DHT22;38556;47.068;15.408;2022-12-24T02:38:11;6.20;99.90
1996;DHT22;38556;47.068;15.408;2022-12-24T02:40:44;6.30;99.90
1996;DHT22;38556;47.068;15.408;2022-12-24T02:43:17;6.40;99.90
1996;DHT22;38556;47.068;15.408;2022-12-24T02:45:51;6.40;99.90
1996;DHT22;38556;47.068;15.408;2022-12-24T02:48:20;6.40;99.90
1996;DHT22;38556;47.068;15.408;2022-12-24T02:50:56;6.50;99.90
1996;DHT22;38556;47.068;15.408;2022-12-24T02:53:24;6.50;99.90
1996;DHT22;38556;47.068;15.408;2022-12-24T02:56:05;6.50;99.90
1996;DHT22;38556;47.068;15.408;2022-12-24T02:58:42;6.40;99.90
1996;DHT22;38556;47.068;15.408;2022-12-24T03:01:16;6.40;99.90
1996;DHT22;38556;47.068;15.408;2022-12-24T03:04:03;6.30;99.90
1996;DHT22;38556;47.068;15.408;2022-12-24T03:09:14;6.30;99.90
1996;DHT22;38556;47.068;15.408;2022-12-24T03:11:47;6.20;99.90
1996;DHT22;38556;47.068;15.408;2022-12-24T03:14:17;6.30;99.90
1996;DHT22;38556;47.068;15.408;2022-12-24T03:16:47;6.20;99.90
1996;DHT22;38556;47.068;15.408;2022-12-24T03:19:14;6.20;99.90
1996;DHT22;38556;47.068;15.408;2022-12-24T03:21:42;6.20;99.90
1996;DHT22;38556;47.068;15.408;2022-12-24T03:24:11;6.20;99.90
1996;DHT22;38556;47.068;15.408;2022-12-24T03:29:07;6.10;99.90
1996;DHT22;38556;47.068;15.408;2022-12-24T03:31:42;6.00;99.90
1996;DHT22;38556;47.068;15.408;2022-12-24T03:34:12;5.80;99.90
1996;DHT22;38556;47.068;15.408;2022-12-24T03:36:41;5.80;99.90
1996;DHT22;38556;47.068;15.408;2022-12-24T03:39:09;5.70;99.90
1996;DHT22;38556;47.068;15.408;2022-12-24T03:41:37;5.80;99.90
1996;DHT22;38556;47.068;15.408;2022-12-24T03:44:04;5.90;99.90
1996;DHT22;38556;47.068;15.408;2022-12-24T03:46:31;5.90;99.90
1996;DHT22;38556;47.068;15.408;2022-12-24T03:48:59;5.90;99.90
1996;DHT22;38556;47.068;15.408;2022-12-24T03:51:27;5.90;99.90
1996;DHT22;38556;47.068;15.408;2022-12-24T03:53:55;5.90;99.90
1996;DHT22;38556;47.068;15.408;2022-12-24T03:56:23;5.90;99.90
1996;DHT22;38556;47.068;15.408;2022-12-24T03:58:51;5.90;99.90
1996;DHT22;38556;47.068;15.408;2022-12-24T04:01:19;5.90;99.90
1996;DHT22;38556;47.068;15.408;2022-12-24T04:03:46;5.90;99.90
1996;DHT22;38556;47.068;15.408;2022-12-24T04:06:15;5.90;99.90
1996;DHT22;38556;47.068;15.408;2022-12-24T04:08:43;5.90;99.90
1996;DHT22;38556;47.068;15.408;2022-12-24T04:11:14;5.90;99.90
1996;DHT22;38556;47.068;15.408;2022-12-24T04:16:11;5.60;99.90
1996;DHT22;38556;47.068;15.408;2022-12-24T04:18:39;5.60;99.90
1996;DHT22;38556;47.068;15.408;2022-12-24T04:21:07;5.50;99.90
1996;DHT22;38556;47.068;15.408;2022-12-24T04:23:36;5.60;99.90
1996;DHT22;38556;47.068;15.408;2022-12-24T04:26:06;5.50;99.90
1996;DHT22;38556;47.068;15.408;2022-12-24T04:31:03;5.40;99.90
1996;DHT22;38556;47.068;15.408;2022-12-24T04:33:31;5.40;99.90
1996;DHT22;38556;47.068;15.408;2022-12-24T04:36:00;5.50;99.90
1996;DHT22;38556;47.068;15.408;2022-12-24T04:38:28;5.50;99.90
1996;DHT22;38556;47.068;15.408;2022-12-24T04:40:59;5.40;99.90
1996;DHT22;38556;47.068;15.408;2022-12-24T04:43:29;5.40;99.90
1996;DHT22;38556;47.068;15.408;2022-12-24T04:45:56;5.40;99.90
1996;DHT22;38556;47.068;15.408;2022-12-24T04:48:23;5.40;99.90
1996;DHT22;38556;47.068;15.408;2022-12-24T04:50:50;5.40;99.90
1996;DHT22;38556;47.068;15.408;2022-12-24T04:53:18;5.40;99.90
1996;DHT22;38556;47.068;15.408;2022-12-24T04:55:45;5.40;99.90
1996;DHT22;38556;47.068;15.408;2022-12-24T04:58:13;5.20;99.90
1996;DHT22;38556;47.068;15.408;2022-12-24T05:00:42;4.90;99.90
1996;DHT22;38556;47.068;15.408;2022-12-24T05:05:37;5.00;99.90
1996;DHT22;38556;47.068;15.408;2022-12-24T05:08:04;4.70;99.90
1996;DHT22;38556;47.068;15.408;2022-12-24T05:10:32;4.90;99.90
1996;DHT22;38556;47.068;15.408;2022-12-24T05:12:59;4.80;99.90
1996;DHT22;38556;47.068;15.408;2022-12-24T05:15:26;5.00;99.90
1996;DHT22;38556;47.068;15.408;2022-12-24T05:17:55;5.10;99.90
1996;DHT22;38556;47.068;15.408;2022-12-24T05:20:23;5.10;99.90
1996;DHT22;38556;47.068;15.408;2022-12-24T05:22:50;5.10;99.90
1996;DHT22;38556;47.068;15.408;2022-12-24T05:25:37;5.10;99.90
1996;DHT22;38556;47.068;15.408;2022-12-24T05:28:22;5.10;99.90
1996;DHT22;38556;47.068;15.408;2022-12-24T05:30:49;5.00;99.90
1996;DHT22;38556;47.068;15.408;2022-12-24T05:33:18;5.00;99.90
1996;DHT22;38556;47.068;15.408;2022-12-24T05:35:45;5.00;99.90
1996;DHT22;38556;47.068;15.408;2022-12-24T05:38:13;5.10;99.90
1996;DHT22;38556;47.068;15.408;2022-12-24T05:40:40;4.80;99.90
1996;DHT22;38556;47.068;15.408;2022-12-24T05:43:07;8.00;99.90
1996;DHT22;38556;47.068;15.408;2022-12-24T05:45:34;4.70;99.90
1996;DHT22;38556;47.068;15.408;2022-12-24T05:48:01;4.60;99.90
1996;DHT22;38556;47.068;15.408;2022-12-24T05:50:30;4.60;99.90
1996;DHT22;38556;47.068;15.408;2022-12-24T05:52:57;4.60;99.90
1996;DHT22;38556;47.068;15.408;2022-12-24T05:55:25;4.60;99.90
1996;DHT22;38556;47.068;15.408;2022-12-24T05:57:53;4.30;99.90
1996;DHT22;38556;47.068;15.408;2022-12-24T06:00:20;4.20;99.90
1996;DHT22;38556;47.068;15.408;2022-12-24T06:02:47;4.20;99.90
1996;DHT22;38556;47.068;15.408;2022-12-24T06:05:15;4.30;99.90
1996;DHT22;38556;47.068;15.408;2022-12-24T06:07:44;4.30;99.90
1996;DHT22;38556;47.068;15.408;2022-12-24T06:10:11;3.90;99.90
1996;DHT22;38556;47.068;15.408;2022-12-24T06:12:38;4.10;99.90
1996;DHT22;38556;47.068;15.408;2022-12-24T06:15:06;4.20;99.90
1996;DHT22;38556;47.068;15.408;2022-12-24T06:17:34;4.40;99.90
1996;DHT22;38556;47.068;15.408;2022-12-24T06:20:02;4.50;99.90
1996;DHT22;38556;47.068;15.408;2022-12-24T06:22:29;4.50;99.90
1996;DHT22;38556;47.068;15.408;2022-12-24T06:24:58;4.60;99.90
1996;DHT22;38556;47.068;15.408;2022-12-24T06:27:25;4.70;99.90
1996;DHT22;38556;47.068;15.408;2022-12-24T06:29:52;4.40;99.90
1996;DHT22;38556;47.068;15.408;2022-12-24T06:32:20;4.40;99.90
1996;DHT22;38556;47.068;15.408;2022-12-24T06:34:47;4.40;99.90
1996;DHT22;38556;47.068;15.408;2022-12-24T06:37:14;4.00;99.90
1996;DHT22;38556;47.068;15.408;2022-12-24T06:39:43;4.00;99.90
1996;DHT22;38556;47.068;15.408;2022-12-24T06:42:13;4.30;99.90
1996;DHT22;38556;47.068;15.408;2022-12-24T06:44:40;4.30;99.90
1996;DHT22;38556;47.068;15.408;2022-12-24T06:47:07;4.40;99.90
1996;DHT22;38556;47.068;15.408;2022-12-24T06:49:35;4.50;99.90
1996;DHT22;38556;47.068;15.408;2022-12-24T06:52:02;4.50;99.90
1996;DHT22;38556;47.068;15.408;2022-12-24T06:54:29;4.50;99.90
1996;DHT22;38556;47.068;15.408;2022-12-24T06:56:56;4.60;99.90
1996;DHT22;38556;47.068;15.408;2022-12-24T06:59:25;4.60;99.90
1996;DHT22;38556;47.068;15.408;2022-12-24T07:01:52;4.70;99.90
1996;DHT22;38556;47.068;15.408;2022-12-24T07:04:19;4.70;99.90
1996;DHT22;38556;47.068;15.408;2022-12-24T07:06:47;4.60;99.90
1996;DHT22;38556;47.068;15.408;2022-12-24T07:09:14;4.70;99.90
1996;DHT22;38556;47.068;15.408;2022-12-24T07:11:42;4.70;99.90
1996;DHT22;38556;47.068;15.408;2022-12-24T07:14:09;4.60;99.90
1996;DHT22;38556;47.068;15.408;2022-12-24T07:16:38;4.50;99.90
1996;DHT22;38556;47.068;15.408;2022-12-24T07:19:05;4.60;99.90
1996;DHT22;38556;47.068;15.408;2022-12-24T07:24:00;4.40;99.90
1996;DHT22;38556;47.068;15.408;2022-12-24T07:26:27;4.40;99.90
1996;DHT22;38556;47.068;15.408;2022-12-24T07:28:55;4.40;99.90
1996;DHT22;38556;47.068;15.408;2022-12-24T07:31:22;4.40;99.90
1996;DHT22;38556;47.068;15.408;2022-12-24T07:33:51;4.50;99.90
1996;DHT22;38556;47.068;15.408;2022-12-24T07:36:20;4.70;99.90
1996;DHT22;38556;47.068;15.408;2022-12-24T07:38:47;4.70;99.90
1996;DHT22;38556;47.068;15.408;2022-12-24T07:41:15;4.70;99.90
1996;DHT22;38556;47.068;15.408;2022-12-24T07:43:42;4.80;99.90
1996;DHT22;38556;47.068;15.408;2022-12-24T07:46:10;4.90;99.90
1996;DHT22;38556;47.068;15.408;2022-12-24T07:48:38;4.80;99.90
1996;DHT22;38556;47.068;15.408;2022-12-24T07:51:07;4.80;99.90
1996;DHT22;38556;47.068;15.408;2022-12-24T07:53:34;4.90;99.90
1996;DHT22;38556;47.068;15.408;2022-12-24T07:56:01;5.00;99.90
1996;DHT22;38556;47.068;15.408;2022-12-24T07:58:29;4.90;99.90
1996;DHT22;38556;47.068;15.408;2022-12-24T08:00:56;5.00;99.90
1996;DHT22;38556;47.068;15.408;2022-12-24T08:03:25;5.00;99.90
1996;DHT22;38556;47.068;15.408;2022-12-24T08:05:52;4.90;99.90
1996;DHT22;38556;47.068;15.408;2022-12-24T08:08:20;5.10;99.90
1996;DHT22;38556;47.068;15.408;2022-12-24T08:10:48;5.20;99.90
1996;DHT22;38556;47.068;15.408;2022-12-24T08:13:16;5.30;99.90
1996;DHT22;38556;47.068;15.408;2022-12-24T08:15:43;5.20;99.90
1996;DHT22;38556;47.068;15.408;2022-12-24T08:18:11;5.20;99.90
1996;DHT22;38556;47.068;15.408;2022-12-24T08:20:39;5.30;99.90
1996;DHT22;38556;47.068;15.408;2022-12-24T08:23:07;5.40;99.90
1996;DHT22;38556;47.068;15.408;2022-12-24T08:25:36;5.40;99.90
1996;DHT22;38556;47.068;15.408;2022-12-24T08:28:04;5.50;99.90
1996;DHT22;38556;47.068;15.408;2022-12-24T08:30:32;5.50;99.90
1996;DHT22;38556;47.068;15.408;2022-12-24T08:33:00;5.50;99.90
1996;DHT22;38556;47.068;15.408;2022-12-24T08:35:27;5.30;99.90
1996;DHT22;38556;47.068;15.408;2022-12-24T08:37:54;5.40;99.90
1996;DHT22;38556;47.068;15.408;2022-12-24T08:40:22;5.50;99.90
1996;DHT22;38556;47.068;15.408;2022-12-24T08:42:50;5.50;99.90
1996;DHT22;38556;47.068;15.408;2022-12-24T08:45:18;5.60;99.90
1996;DHT22;38556;47.068;15.408;2022-12-24T08:47:46;5.60;99.90
1996;DHT22;38556;47.068;15.408;2022-12-24T08:50:13;5.60;99.90
1996;DHT22;38556;47.068;15.408;2022-12-24T08:52:40;5.40;99.90
1996;DHT22;38556;47.068;15.408;2022-12-24T08:55:08;5.40;99.90
1996;DHT22;38556;47.068;15.408;2022-12-24T08:57:35;5.20;99.90
1996;DHT22;38556;47.068;15.408;2022-12-24T09:00:07;5.20;99.90
1996;DHT22;38556;47.068;15.408;2022-12-24T09:02:34;5.30;99.90
1996;DHT22;38556;47.068;15.408;2022-12-24T09:05:02;5.60;99.90
1996;DHT22;38556;47.068;15.408;2022-12-24T09:07:29;5.80;99.90
1996;DHT22;38556;47.068;15.408;2022-12-24T09:09:57;5.80;99.90
1996;DHT22;38556;47.068;15.408;2022-12-24T09:12:24;5.90;99.90
1996;DHT22;38556;47.068;15.408;2022-12-24T09:14:51;5.90;99.90
1996;DHT22;38556;47.068;15.408;2022-12-24T09:17:21;6.00;99.90
1996;DHT22;38556;47.068;15.408;2022-12-24T09:19:48;6.00;99.90
1996;DHT22;38556;47.068;15.408;2022-12-24T09:22:15;5.90;99.90
1996;DHT22;38556;47.068;15.408;2022-12-24T09:24:43;6.10;99.90
1996;DHT22;38556;47.068;15.408;2022-12-24T09:27:10;6.20;99.90
1996;DHT22;38556;47.068;15.408;2022-12-24T09:29:37;6.20;99.90
1996;DHT22;38556;47.068;15.408;2022-12-24T09:32:06;6.20;99.90
1996;DHT22;38556;47.068;15.408;2022-12-24T09:34:34;6.20;99.90
1996;DHT22;38556;47.068;15.408;2022-12-24T09:37:02;6.10;99.90
1996;DHT22;38556;47.068;15.408;2022-12-24T09:39:29;6.10;99.90
1996;DHT22;38556;47.068;15.408;2022-12-24T09:42:05;6.20;99.90
1996;DHT22;38556;47.068;15.408;2022-12-24T09:44:40;6.10;99.90
1996;DHT22;38556;47.068;15.408;2022-12-24T09:47:15;6.00;99.90
1996;DHT22;38556;47.068;15.408;2022-12-24T09:49:50;5.80;99.90
1996;DHT22;38556;47.068;15.408;2022-12-24T09:52:25;5.80;99.90
1996;DHT22;38556;47.068;15.408;2022-12-24T09:55:00;5.80;99.90
1996;DHT22;38556;47.068;15.408;2022-12-24T09:57:34;5.90;99.90
1996;DHT22;38556;47.068;15.408;2022-12-24T10:00:03;6.00;99.90
1996;DHT22;38556;47.068;15.408;2022-12-24T10:02:31;6.10;99.90
1996;DHT22;38556;47.068;15.408;2022-12-24T10:05:00;6.30;99.90
1996;DHT22;38556;47.068;15.408;2022-12-24T10:07:34;6.40;99.90
1996;DHT22;38556;47.068;15.408;2022-12-24T10:10:13;6.40;99.90
1996;DHT22;38556;47.068;15.408;2022-12-24T10:12:50;6.40;99.90
1996;DHT22;38556;47.068;15.408;2022-12-24T10:15:26;6.60;99.90
1996;DHT22;38556;47.068;15.408;2022-12-24T10:18:06;6.70;99.90
1996;DHT22;38556;47.068;15.408;2022-12-24T10:20:43;6.80;99.90
1996;DHT22;38556;47.068;15.408;2022-12-24T10:23:18;6.80;99.90
1996;DHT22;38556;47.068;15.408;2022-12-24T10:25:53;7.00;99.90
1996;DHT22;38556;47.068;15.408;2022-12-24T10:28:30;7.20;99.90
1996;DHT22;38556;47.068;15.408;2022-12-24T10:31:02;7.20;99.90
1996;DHT22;38556;47.068;15.408;2022-12-24T10:33:35;7.30;99.90
1996;DHT22;38556;47.068;15.408;2022-12-24T10:36:07;7.40;99.90
1996;DHT22;38556;47.068;15.408;2022-12-24T10:38:37;7.40;99.90
1996;DHT22;38556;47.068;15.408;2022-12-24T10:41:05;7.40;99.90
1996;DHT22;38556;47.068;15.408;2022-12-24T10:43:34;7.50;99.90
1996;DHT22;38556;47.068;15.408;2022-12-24T10:46:06;7.60;99.90
1996;DHT22;38556;47.068;15.408;2022-12-24T10:48:38;7.70;99.90
1996;DHT22;38556;47.068;15.408;2022-12-24T10:51:13;7.70;99.90
1996;DHT22;38556;47.068;15.408;2022-12-24T10:53:46;7.70;99.90
1996;DHT22;38556;47.068;15.408;2022-12-24T10:56:15;7.70;99.90
1996;DHT22;38556;47.068;15.408;2022-12-24T10:58:45;7.70;99.90
1996;DHT22;38556;47.068;15.408;2022-12-24T11:01:12;7.70;99.90
1996;DHT22;38556;47.068;15.408;2022-12-24T11:03:40;7.70;99.90
1996;DHT22;38556;47.068;15.408;2022-12-24T11:06:11;7.80;99.90
1996;DHT22;38556;47.068;15.408;2022-12-24T11:08:39;7.80;99.90
1996;DHT22;38556;47.068;15.408;2022-12-24T11:11:10;7.90;99.90
1996;DHT22;38556;47.068;15.408;2022-12-24T11:13:38;8.10;99.90
1996;DHT22;38556;47.068;15.408;2022-12-24T11:16:09;5.70;99.90
1996;DHT22;38556;47.068;15.408;2022-12-24T11:18:45;8.30;99.90
1996;DHT22;38556;47.068;15.408;2022-12-24T11:21:19;8.40;99.90
1996;DHT22;38556;47.068;15.408;2022-12-24T11:23:51;8.40;99.90
1996;DHT22;38556;47.068;15.408;2022-12-24T11:26:24;8.50;99.90
1996;DHT22;38556;47.068;15.408;2022-12-24T11:29:20;8.50;99.90
1996;DHT22;38556;47.068;15.408;2022-12-24T11:31:49;8.60;99.90
1996;DHT22;38556;47.068;15.408;2022-12-24T11:34:25;8.30;99.90
1996;DHT22;38556;47.068;15.408;2022-12-24T11:37:06;8.30;99.90
1996;DHT22;38556;47.068;15.408;2022-12-24T11:39:38;8.20;99.90
1996;DHT22;38556;47.068;15.408;2022-12-24T11:42:06;8.30;99.90
1996;DHT22;38556;47.068;15.408;2022-12-24T11:44:34;8.30;99.90
1996;DHT22;38556;47.068;15.408;2022-12-24T11:47:13;8.30;99.90
1996;DHT22;38556;47.068;15.408;2022-12-24T11:49:40;8.20;99.90
1996;DHT22;38556;47.068;15.408;2022-12-24T11:52:19;8.30;99.90
1996;DHT22;38556;47.068;15.408;2022-12-24T11:55:03;8.30;99.90
1996;DHT22;38556;47.068;15.408;2022-12-24T11:57:40;8.60;99.90
1996;DHT22;38556;47.068;15.408;2022-12-24T12:00:11;8.60;99.90
1996;DHT22;38556;47.068;15.408;2022-12-24T12:02:40;8.70;99.90
1996;DHT22;38556;47.068;15.408;2022-12-24T12:05:12;8.90;99.90
1996;DHT22;38556;47.068;15.408;2022-12-24T12:07:45;9.00;99.90
1996;DHT22;38556;47.068;15.408;2022-12-24T12:10:17;9.10;99.90
1996;DHT22;38556;47.068;15.408;2022-12-24T12:12:46;9.30;99.90
1996;DHT22;38556;47.068;15.408;2022-12-24T12:15:19;9.50;99.90
1996;DHT22;38556;47.068;15.408;2022-12-24T12:17:50;9.60;99.90
1996;DHT22;38556;47.068;15.408;2022-12-24T12:20:23;9.80;99.90
1996;DHT22;38556;47.068;15.408;2022-12-24T12:22:58;9.90;99.90
1996;DHT22;38556;47.068;15.408;2022-12-24T12:25:29;10.00;99.90
1996;DHT22;38556;47.068;15.408;2022-12-24T12:27:59;10.10;99.90
1996;DHT22;38556;47.068;15.408;2022-12-24T12:30:28;10.20;99.90
1996;DHT22;38556;47.068;15.408;2022-12-24T12:33:00;10.20;99.90
1996;DHT22;38556;47.068;15.408;2022-12-24T12:35:31;10.40;99.90
1996;DHT22;38556;47.068;15.408;2022-12-24T12:38:04;10.60;99.90
1996;DHT22;38556;47.068;15.408;2022-12-24T12:40:47;10.60;99.90
1996;DHT22;38556;47.068;15.408;2022-12-24T12:43:30;10.70;99.90
1996;DHT22;38556;47.068;15.408;2022-12-24T12:46:10;10.80;99.90
1996;DHT22;38556;47.068;15.408;2022-12-24T12:48:59;11.00;99.90
1996;DHT22;38556;47.068;15.408;2022-12-24T12:51:34;11.20;99.90
1996;DHT22;38556;47.068;15.408;2022-12-24T12:54:24;11.30;99.90
1996;DHT22;38556;47.068;15.408;2022-12-24T12:56:57;9.90;99.90
1996;DHT22;38556;47.068;15.408;2022-12-24T12:59:32;11.60;99.90
1996;DHT22;38556;47.068;15.408;2022-12-24T13:02:14;11.60;99.90
1996;DHT22;38556;47.068;15.408;2022-12-24T13:05:05;11.70;99.90
1996;DHT22;38556;47.068;15.408;2022-12-24T13:07:54;11.90;99.90
1996;DHT22;38556;47.068;15.408;2022-12-24T13:10:50;12.00;99.90
1996;DHT22;38556;47.068;15.408;2022-12-24T13:16:40;12.10;99.90
1996;DHT22;38556;47.068;15.408;2022-12-24T13:19:18;12.10;99.90
1996;DHT22;38556;47.068;15.408;2022-12-24T13:21:48;12.40;99.90
1996;DHT22;38556;47.068;15.408;2022-12-24T13:24:18;12.50;99.90
1996;DHT22;38556;47.068;15.408;2022-12-24T13:27:05;12.90;99.90
1996;DHT22;38556;47.068;15.408;2022-12-24T13:29:49;12.90;99.90
1996;DHT22;38556;47.068;15.408;2022-12-24T13:32:47;12.90;99.90
1996;DHT22;38556;47.068;15.408;2022-12-24T13:35:36;13.20;99.90
1996;DHT22;38556;47.068;15.408;2022-12-24T13:41:36;13.40;99.90
1996;DHT22;38556;47.068;15.408;2022-12-24T13:44:21;13.60;99.90
1996;DHT22;38556;47.068;15.408;2022-12-24T13:46:51;13.80;99.90
1996;DHT22;38556;47.068;15.408;2022-12-24T13:49:27;14.00;99.90
1996;DHT22;38556;47.068;15.408;2022-12-24T13:52:07;14.10;99.90
1996;DHT22;38556;47.068;15.408;2022-12-24T13:54:37;14.20;99.90
1996;DHT22;38556;47.068;15.408;2022-12-24T13:57:25;14.00;99.90
1996;DHT22;38556;47.068;15.408;2022-12-24T13:59:59;13.90;99.90
1996;DHT22;38556;47.068;15.408;2022-12-24T14:02:31;13.70;99.90
1996;DHT22;38556;47.068;15.408;2022-12-24T14:05:04;13.80;99.90
1996;DHT22;38556;47.068;15.408;2022-12-24T14:07:33;13.70;99.90
1996;DHT22;38556;47.068;15.408;2022-12-24T14:10:02;13.70;99.90
1996;DHT22;38556;47.068;15.408;2022-12-24T14:12:49;13.80;99.90
1996;DHT22;38556;47.068;15.408;2022-12-24T14:18:30;14.60;99.90
1996;DHT22;38556;47.068;15.408;2022-12-24T14:21:00;15.60;99.90
1996;DHT22;38556;47.068;15.408;2022-12-24T14:23:48;16.70;99.90
1996;DHT22;38556;47.068;15.408;2022-12-24T14:26:20;17.80;99.90
1996;DHT22;38556;47.068;15.408;2022-12-24T14:28:53;18.70;99.90
1996;DHT22;38556;47.068;15.408;2022-12-24T14:31:21;18.60;99.90
1996;DHT22;38556;47.068;15.408;2022-12-24T14:33:50;18.00;99.90
1996;DHT22;38556;47.068;15.408;2022-12-24T14:36:21;17.30;99.90
1996;DHT22;38556;47.068;15.408;2022-12-24T14:38:49;17.00;99.90
1996;DHT22;38556;47.068;15.408;2022-12-24T14:41:35;16.80;99.90
1996;DHT22;38556;47.068;15.408;2022-12-24T14:44:11;16.30;99.90
1996;DHT22;38556;47.068;15.408;2022-12-24T14:46:47;15.90;99.90
1996;DHT22;38556;47.068;15.408;2022-12-24T14:49:24;15.30;99.90
1996;DHT22;38556;47.068;15.408;2022-12-24T14:52:01;14.90;99.90
1996;DHT22;38556;47.068;15.408;2022-12-24T14:54:37;14.70;99.90
1996;DHT22;38556;47.068;15.408;2022-12-24T14:57:14;14.20;99.90
1996;DHT22;38556;47.068;15.408;2022-12-24T14:59:46;14.10;99.90
1996;DHT22;38556;47.068;15.408;2022-12-24T15:02:30;13.90;99.90
1996;DHT22;38556;47.068;15.408;2022-12-24T15:05:10;13.40;99.90
1996;DHT22;38556;47.068;15.408;2022-12-24T15:07:41;13.10;99.90
1996;DHT22;38556;47.068;15.408;2022-12-24T15:10:32;13.10;99.90
1996;DHT22;38556;47.068;15.408;2022-12-24T15:13:02;12.80;99.90
1996;DHT22;38556;47.068;15.408;2022-12-24T15:15:31;12.70;99.90
1996;DHT22;38556;47.068;15.408;2022-12-24T15:17:59;12.50;99.90
1996;DHT22;38556;47.068;15.408;2022-12-24T15:20:30;12.40;99.90
1996;DHT22;38556;47.068;15.408;2022-12-24T15:22:58;12.10;99.90
1996;DHT22;38556;47.068;15.408;2022-12-24T15:25:28;12.10;99.90
1996;DHT22;38556;47.068;15.408;2022-12-24T15:27:57;11.90;99.90
1996;DHT22;38556;47.068;15.408;2022-12-24T15:30:26;11.80;99.90
1996;DHT22;38556;47.068;15.408;2022-12-24T15:32:56;11.50;99.90
1996;DHT22;38556;47.068;15.408;2022-12-24T15:38:23;11.30;99.90
1996;DHT22;38556;47.068;15.408;2022-12-24T15:40:52;10.90;99.90
1996;DHT22;38556;47.068;15.408;2022-12-24T15:43:20;10.60;99.90
1996;DHT22;38556;47.068;15.408;2022-12-24T15:45:48;10.50;99.90
1996;DHT22;38556;47.068;15.408;2022-12-24T15:48:20;10.50;99.90
1996;DHT22;38556;47.068;15.408;2022-12-24T15:50:51;10.20;99.90
1996;DHT22;38556;47.068;15.408;2022-12-24T15:53:23;10.10;99.90
1996;DHT22;38556;47.068;15.408;2022-12-24T15:56:06;10.10;99.90
1996;DHT22;38556;47.068;15.408;2022-12-24T15:58:36;10.10;99.90
1996;DHT22;38556;47.068;15.408;2022-12-24T16:01:23;10.00;99.90
1996;DHT22;38556;47.068;15.408;2022-12-24T16:03:56;9.90;99.90
1996;DHT22;38556;47.068;15.408;2022-12-24T16:06:25;9.90;99.90
1996;DHT22;38556;47.068;15.408;2022-12-24T16:08:54;9.80;99.90
1996;DHT22;38556;47.068;15.408;2022-12-24T16:11:25;9.80;99.90
1996;DHT22;38556;47.068;15.408;2022-12-24T16:14:03;9.60;99.90
1996;DHT22;38556;47.068;15.408;2022-12-24T16:16:35;9.50;99.90
1996;DHT22;38556;47.068;15.408;2022-12-24T16:19:04;9.50;99.90
1996;DHT22;38556;47.068;15.408;2022-12-24T16:21:36;9.30;99.90
1996;DHT22;38556;47.068;15.408;2022-12-24T16:24:11;9.30;99.90
1996;DHT22;38556;47.068;15.408;2022-12-24T16:29:09;9.30;99.90
1996;DHT22;38556;47.068;15.408;2022-12-24T16:31:41;9.20;99.90
1996;DHT22;38556;47.068;15.408;2022-12-24T16:34:12;9.10;99.90
1996;DHT22;38556;47.068;15.408;2022-12-24T16:36:43;8.90;99.90
1996;DHT22;38556;47.068;15.408;2022-12-24T16:39:12;8.80;99.90